sensor_id;sensor_type;location;lat;lon;timestamp;pressure;altitude;pressure_sealevel;temperature;humidity
62712;BME280;48772;55.586;37.730;2023-07-29T00:00:00;98305.31;;;17.00;100.00
62712;BME280;48772;55.586;37.730;2023-07-29T00:02:26;98316.81;;;17.15;100.00
62712;BME280;48772;55.586;37.730;2023-07-29T00:04:56;98328.19;;;17.17;100.00
62712;BME280;48772;55.586;37.730;2023-07-29T00:07:22;98318.69;;;17.21;100.00
62712;BME280;48772;55.586;37.730;2023-07-29T00:09:48;98313.25;;;17.14;100.00
62712;BME280;48772;55.586;37.730;2023-07-29T00:12:14;98326.97;;;17.19;100.00
62712;BME280;48772;55.586;37.730;2023-07-29T00:14:39;98317.81;;;17.14;100.00
62712;BME280;48772;55.586;37.730;2023-07-29T00:17:05;98319.50;;;17.15;100.00
62712;BME280;48772;55.586;37.730;2023-07-29T00:19:31;98329.03;;;17.17;100.00
62712;BME280;48772;55.586;37.730;2023-07-29T00:21:58;98322.19;;;17.15;100.00
62712;BME280;48772;55.586;37.730;2023-07-29T00:24:24;98315.66;;;17.03;100.00
62712;BME280;48772;55.586;37.730;2023-07-29T00:26:50;98332.47;;;17.05;100.00
62712;BME280;48772;55.586;37.730;2023-07-29T00:29:17;98306.13;;;17.00;100.00
62712;BME280;48772;55.586;37.730;2023-07-29T00:31:43;98299.03;;;16.93;100.00
62712;BME280;48772;55.586;37.730;2023-07-29T00:34:08;98297.81;;;16.95;100.00
62712;BME280;48772;55.586;37.730;2023-07-29T00:36:36;98318.53;;;17.01;100.00
62712;BME280;48772;55.586;37.730;2023-07-29T00:39:01;98313.75;;;16.97;100.00
62712;BME280;48772;55.586;37.730;2023-07-29T00:41:28;98296.56;;;16.98;100.00
62712;BME280;48772;55.586;37.730;2023-07-29T00:43:54;98302.19;;;17.03;100.00
62712;BME280;48772;55.586;37.730;2023-07-29T00:46:20;98294.25;;;16.95;100.00
62712;BME280;48772;55.586;37.730;2023-07-29T00:48:46;98301.31;;;16.96;100.00
62712;BME280;48772;55.586;37.730;2023-07-29T00:51:12;98304.84;;;16.96;100.00
62712;BME280;48772;55.586;37.730;2023-07-29T00:53:38;98278.22;;;16.80;100.00
62712;BME280;48772;55.586;37.730;2023-07-29T00:56:04;98303.38;;;16.94;100.00
62712;BME280;48772;55.586;37.730;2023-07-29T00:58:30;98309.38;;;16.96;100.00
62712;BME280;48772;55.586;37.730;2023-07-29T01:00:56;98302.34;;;16.95;100.00
62712;BME280;48772;55.586;37.730;2023-07-29T01:03:23;98286.16;;;16.88;100.00
62712;BME280;48772;55.586;37.730;2023-07-29T01:09:23;98294.19;;;16.82;100.00
62712;BME280;48772;55.586;37.730;2023-07-29T01:12:01;98290.59;;;16.75;100.00
62712;BME280;48772;55.586;37.730;2023-07-29T01:17:13;98275.59;;;16.66;100.00
62712;BME280;48772;55.586;37.730;2023-07-29T01:22:19;98283.94;;;16.71;100.00
62712;BME280;48772;55.586;37.730;2023-07-29T01:24:47;98294.72;;;16.71;100.00
62712;BME280;48772;55.586;37.730;2023-07-29T01:27:12;98294.75;;;16.77;100.00
62712;BME280;48772;55.586;37.730;2023-07-29T01:29:40;98285.59;;;16.72;100.00
62712;BME280;48772;55.586;37.730;2023-07-29T01:32:37;98271.09;;;16.73;100.00
62712;BME280;48772;55.586;37.730;2023-07-29T01:38:01;98262.78;;;16.68;100.00
62712;BME280;48772;55.586;37.730;2023-07-29T01:40:28;98266.06;;;16.63;100.00
62712;BME280;48772;55.586;37.730;2023-07-29T01:42:56;98255.88;;;16.59;100.00
62712;BME280;48772;55.586;37.730;2023-07-29T01:45:24;98263.56;;;16.62;100.00
62712;BME280;48772;55.586;37.730;2023-07-29T01:47:53;98270.22;;;16.66;100.00
62712;BME280;48772;55.586;37.730;2023-07-29T01:50:19;98266.91;;;16.64;100.00
62712;BME280;48772;55.586;37.730;2023-07-29T01:52:45;98256.66;;;16.53;100.00
62712;BME280;48772;55.586;37.730;2023-07-29T01:55:10;98256.25;;;16.56;100.00
62712;BME280;48772;55.586;37.730;2023-07-29T01:57:36;98263.47;;;16.49;100.00
62712;BME280;48772;55.586;37.730;2023-07-29T02:00:02;98281.31;;;16.56;100.00
62712;BME280;48772;55.586;37.730;2023-07-29T02:02:40;98294.59;;;16.58;100.00
62712;BME280;48772;55.586;37.730;2023-07-29T02:05:06;98303.75;;;16.63;100.00
62712;BME280;48772;55.586;37.730;2023-07-29T02:07:33;98312.06;;;16.68;100.00
62712;BME280;48772;55.586;37.730;2023-07-29T02:09:59;98314.97;;;16.67;100.00
62712;BME280;48772;55.586;37.730;2023-07-29T02:12:25;98313.94;;;16.68;100.00
62712;BME280;48772;55.586;37.730;2023-07-29T02:14:51;98310.34;;;16.61;100.00
62712;BME280;48772;55.586;37.730;2023-07-29T02:17:17;98308.63;;;16.53;100.00
62712;BME280;48772;55.586;37.730;2023-07-29T02:19:43;98306.56;;;16.55;100.00
62712;BME280;48772;55.586;37.730;2023-07-29T02:22:12;98300.91;;;16.50;100.00
62712;BME280;48772;55.586;37.730;2023-07-29T02:24:38;98310.72;;;16.58;100.00
62712;BME280;48772;55.586;37.730;2023-07-29T02:27:04;98310.72;;;16.58;100.00
62712;BME280;48772;55.586;37.730;2023-07-29T02:29:30;98320.47;;;16.59;100.00
62712;BME280;48772;55.586;37.730;2023-07-29T02:31:56;98304.06;;;16.54;100.00
62712;BME280;48772;55.586;37.730;2023-07-29T02:34:22;98314.06;;;16.60;100.00
62712;BME280;48772;55.586;37.730;2023-07-29T02:36:48;98311.13;;;16.55;100.00
62712;BME280;48772;55.586;37.730;2023-07-29T02:39:13;98299.84;;;16.44;100.00
62712;BME280;48772;55.586;37.730;2023-07-29T02:41:39;98308.00;;;16.51;100.00
62712;BME280;48772;55.586;37.730;2023-07-29T02:44:12;98289.63;;;16.40;100.00
62712;BME280;48772;55.586;37.730;2023-07-29T02:46:38;98312.56;;;16.57;100.00
62712;BME280;48772;55.586;37.730;2023-07-29T02:49:05;98306.09;;;16.52;100.00
62712;BME280;48772;55.586;37.730;2023-07-29T02:51:31;98313.38;;;16.51;100.00
62712;BME280;48772;55.586;37.730;2023-07-29T02:53:57;98287.75;;;16.40;100.00
62712;BME280;48772;55.586;37.730;2023-07-29T02:56:23;98285.91;;;16.41;100.00
62712;BME280;48772;55.586;37.730;2023-07-29T02:58:49;98289.53;;;16.48;100.00
62712;BME280;48772;55.586;37.730;2023-07-29T03:01:17;98275.34;;;16.39;100.00
62712;BME280;48772;55.586;37.730;2023-07-29T03:03:43;98251.25;;;16.31;100.00
62712;BME280;48772;55.586;37.730;2023-07-29T03:06:10;98237.09;;;16.23;100.00
62712;BME280;48772;55.586;37.730;2023-07-29T03:08:37;98230.13;;;16.28;100.00
62712;BME280;48772;55.586;37.730;2023-07-29T03:11:08;98220.25;;;16.14;100.00
62712;BME280;48772;55.586;37.730;2023-07-29T03:13:34;98201.44;;;16.14;100.00
62712;BME280;48772;55.586;37.730;2023-07-29T14:26:19;98263.53;;;17.98;100.00
62712;BME280;48772;55.586;37.730;2023-07-29T14:28:47;98240.88;;;17.92;100.00
62712;BME280;48772;55.586;37.730;2023-07-29T14:31:34;98271.00;;;18.02;100.00
62712;BME280;48772;55.586;37.730;2023-07-29T14:34:01;98220.09;;;17.67;100.00
62712;BME280;48772;55.586;37.730;2023-07-29T14:36:29;98210.75;;;17.63;100.00
62712;BME280;48772;55.586;37.730;2023-07-29T14:38:55;98222.38;;;17.70;100.00
62712;BME280;48772;55.586;37.730;2023-07-29T14:41:26;98231.31;;;17.77;100.00
62712;BME280;48772;55.586;37.730;2023-07-29T14:43:53;98263.56;;;18.04;100.00
62712;BME280;48772;55.586;37.730;2023-07-29T14:46:23;98268.13;;;18.04;100.00
62712;BME280;48772;55.586;37.730;2023-07-29T14:48:56;98284.56;;;18.15;100.00
62712;BME280;48772;55.586;37.730;2023-07-29T14:51:59;98254.22;;;18.00;100.00
62712;BME280;48772;55.586;37.730;2023-07-29T14:54:28;98250.28;;;18.03;100.00
62712;BME280;48772;55.586;37.730;2023-07-29T14:56:55;98261.06;;;18.16;100.00
62712;BME280;48772;55.586;37.730;2023-07-29T14:59:22;98237.44;;;18.11;100.00
62712;BME280;48772;55.586;37.730;2023-07-29T15:01:49;98257.56;;;18.22;100.00
62712;BME280;48772;55.586;37.730;2023-07-29T15:07:36;98225.56;;;17.99;100.00
62712;BME280;48772;55.586;37.730;2023-07-29T15:10:06;98239.09;;;18.19;100.00
62712;BME280;48772;55.586;37.730;2023-07-29T15:12:34;98190.28;;;17.94;100.00
62712;BME280;48772;55.586;37.730;2023-07-29T15:15:02;98237.22;;;18.26;100.00
62712;BME280;48772;55.586;37.730;2023-07-29T15:17:31;98212.72;;;18.08;100.00
62712;BME280;48772;55.586;37.730;2023-07-29T15:19:59;98239.94;;;18.32;100.00
62712;BME280;48772;55.586;37.730;2023-07-29T15:22:25;98241.22;;;18.36;100.00
62712;BME280;48772;55.586;37.730;2023-07-29T15:24:58;98283.38;;;18.50;100.00
62712;BME280;48772;55.586;37.730;2023-07-29T15:27:31;98206.91;;;18.11;100.00
62712;BME280;48772;55.586;37.730;2023-07-29T15:30:01;98220.41;;;18.24;100.00
62712;BME280;48772;55.586;37.730;2023-07-29T15:32:34;98251.81;;;18.51;100.00
62712;BME280;48772;55.586;37.730;2023-07-29T15:35:01;98257.00;;;18.59;100.00
62712;BME280;48772;55.586;37.730;2023-07-29T15:37:27;98272.41;;;18.65;100.00
62712;BME280;48772;55.586;37.730;2023-07-29T15:39:53;98265.31;;;18.64;100.00
62712;BME280;48772;55.586;37.730;2023-07-29T15:42:19;98239.97;;;18.52;100.00
62712;BME280;48772;55.586;37.730;2023-07-29T15:44:45;98252.25;;;18.61;100.00
62712;BME280;48772;55.586;37.730;2023-07-29T15:47:11;98266.56;;;18.68;100.00
62712;BME280;48772;55.586;37.730;2023-07-29T15:49:41;98255.56;;;18.63;100.00
62712;BME280;48772;55.586;37.730;2023-07-29T15:52:07;98241.66;;;18.59;100.00
62712;BME280;48772;55.586;37.730;2023-07-29T15:54:34;98240.81;;;18.65;100.00
62712;BME280;48772;55.586;37.730;2023-07-29T15:57:00;98299.00;;;18.94;100.00
62712;BME280;48772;55.586;37.730;2023-07-29T15:59:26;98284.44;;;18.88;100.00
62712;BME280;48772;55.586;37.730;2023-07-29T16:01:52;98281.13;;;18.86;100.00
62712;BME280;48772;55.586;37.730;2023-07-29T16:04:17;98250.56;;;18.60;100.00
62712;BME280;48772;55.586;37.730;2023-07-29T16:06:43;98297.13;;;18.81;100.00
62712;BME280;48772;55.586;37.730;2023-07-29T16:09:09;98266.97;;;18.52;100.00
62712;BME280;48772;55.586;37.730;2023-07-29T16:11:35;98294.00;;;18.65;100.00
62712;BME280;48772;55.586;37.730;2023-07-29T16:14:01;98257.84;;;18.40;100.00
62712;BME280;48772;55.586;37.730;2023-07-29T16:16:38;98301.66;;;18.61;100.00
62712;BME280;48772;55.586;37.730;2023-07-29T16:19:04;98293.56;;;18.55;100.00
62712;BME280;48772;55.586;37.730;2023-07-29T16:21:32;98301.25;;;18.64;100.00
62712;BME280;48772;55.586;37.730;2023-07-29T16:23:58;98290.44;;;18.51;100.00
62712;BME280;48772;55.586;37.730;2023-07-29T16:26:24;98269.69;;;18.39;100.00
62712;BME280;48772;55.586;37.730;2023-07-29T16:28:50;98294.41;;;18.55;100.00
62712;BME280;48772;55.586;37.730;2023-07-29T16:31:16;98268.59;;;18.33;100.00
62712;BME280;48772;55.586;37.730;2023-07-29T16:33:44;98232.84;;;18.12;100.00
62712;BME280;48772;55.586;37.730;2023-07-29T16:36:10;98288.38;;;18.47;100.00
62712;BME280;48772;55.586;37.730;2023-07-29T16:38:36;98296.69;;;18.52;100.00
62712;BME280;48772;55.586;37.730;2023-07-29T16:41:02;98283.78;;;18.47;100.00
62712;BME280;48772;55.586;37.730;2023-07-29T16:43:28;98293.16;;;18.58;100.00
62712;BME280;48772;55.586;37.730;2023-07-29T16:45:54;98265.09;;;18.46;100.00
62712;BME280;48772;55.586;37.730;2023-07-29T16:48:22;98300.66;;;18.69;100.00
62712;BME280;48772;55.586;37.730;2023-07-29T16:50:48;98295.22;;;18.56;100.00
62712;BME280;48772;55.586;37.730;2023-07-29T16:53:14;98299.38;;;18.58;100.00
62712;BME280;48772;55.586;37.730;2023-07-29T16:55:41;98298.97;;;18.55;100.00
62712;BME280;48772;55.586;37.730;2023-07-29T16:58:07;98299.19;;;18.53;100.00
62712;BME280;48772;55.586;37.730;2023-07-29T17:00:33;98304.38;;;18.48;100.00
62712;BME280;48772;55.586;37.730;2023-07-29T17:02:59;98281.91;;;18.35;100.00
62712;BME280;48772;55.586;37.730;2023-07-29T17:05:25;98282.25;;;18.25;100.00
62712;BME280;48772;55.586;37.730;2023-07-29T17:07:51;98302.28;;;18.37;100.00
62712;BME280;48772;55.586;37.730;2023-07-29T17:10:18;98305.75;;;18.31;100.00
62712;BME280;48772;55.586;37.730;2023-07-29T17:12:46;98298.84;;;18.16;100.00
62712;BME280;48772;55.586;37.730;2023-07-29T17:15:12;98295.50;;;18.07;100.00
62712;BME280;48772;55.586;37.730;2023-07-29T17:17:38;98310.03;;;18.06;100.00
62712;BME280;48772;55.586;37.730;2023-07-29T17:20:06;98298.78;;;17.96;100.00
62712;BME280;48772;55.586;37.730;2023-07-29T17:22:32;98310.81;;;17.94;100.00
62712;BME280;48772;55.586;37.730;2023-07-29T17:25:01;98314.94;;;17.90;100.00
62712;BME280;48772;55.586;37.730;2023-07-29T17:27:29;98328.84;;;17.87;100.00
62712;BME280;48772;55.586;37.730;2023-07-29T17:29:55;98317.19;;;17.80;100.00
62712;BME280;48772;55.586;37.730;2023-07-29T17:32:21;98291.56;;;17.56;100.00
62712;BME280;48772;55.586;37.730;2023-07-29T17:34:47;98316.09;;;17.68;100.00
62712;BME280;48772;55.586;37.730;2023-07-29T17:37:13;98337.66;;;17.68;100.00
62712;BME280;48772;55.586;37.730;2023-07-29T17:39:39;98319.75;;;17.54;100.00
62712;BME280;48772;55.586;37.730;2023-07-29T17:42:07;98326.59;;;17.56;100.00
62712;BME280;48772;55.586;37.730;2023-07-29T17:44:35;98329.09;;;17.58;100.00
62712;BME280;48772;55.586;37.730;2023-07-29T17:47:01;98342.34;;;17.53;100.00
62712;BME280;48772;55.586;37.730;2023-07-29T17:49:27;98314.66;;;17.38;100.00
62712;BME280;48772;55.586;37.730;2023-07-29T17:51:53;98333.41;;;17.46;100.00
62712;BME280;48772;55.586;37.730;2023-07-29T17:54:20;98332.97;;;17.42;100.00
62712;BME280;48772;55.586;37.730;2023-07-29T17:56:46;98327.38;;;17.44;100.00
62712;BME280;48772;55.586;37.730;2023-07-29T17:59:12;98325.44;;;17.38;100.00
62712;BME280;48772;55.586;37.730;2023-07-29T18:01:38;98321.28;;;17.35;100.00
62712;BME280;48772;55.586;37.730;2023-07-29T18:04:03;98327.47;;;17.29;100.00
62712;BME280;48772;55.586;37.730;2023-07-29T18:06:30;98336.63;;;17.35;100.00
62712;BME280;48772;55.586;37.730;2023-07-29T18:08:56;98332.47;;;17.32;100.00
62712;BME280;48772;55.586;37.730;2023-07-29T18:11:22;98333.22;;;17.26;100.00
62712;BME280;48772;55.586;37.730;2023-07-29T18:13:48;98311.59;;;17.13;100.00
62712;BME280;48772;55.586;37.730;2023-07-29T18:16:14;98301.13;;;16.97;100.00
62712;BME280;48772;55.586;37.730;2023-07-29T18:18:46;98296.34;;;16.93;100.00
62712;BME280;48772;55.586;37.730;2023-07-29T18:21:15;98312.91;;;16.96;100.00
62712;BME280;48772;55.586;37.730;2023-07-29T18:23:41;98332.66;;;17.03;100.00
62712;BME280;48772;55.586;37.730;2023-07-29T18:26:07;98315.81;;;16.95;100.00
62712;BME280;48772;55.586;37.730;2023-07-29T18:28:32;98325.53;;;16.96;100.00
62712;BME280;48772;55.586;37.730;2023-07-29T18:30:58;98317.41;;;16.89;100.00
62712;BME280;48772;55.586;37.730;2023-07-29T18:33:24;98311.34;;;16.81;100.00
62712;BME280;48772;55.586;37.730;2023-07-29T18:35:50;98339.81;;;16.90;100.00
62712;BME280;48772;55.586;37.730;2023-07-29T18:38:16;98341.84;;;16.88;100.00
62712;BME280;48772;55.586;37.730;2023-07-29T18:40:42;98348.47;;;16.85;100.00
62712;BME280;48772;55.586;37.730;2023-07-29T18:43:09;98347.22;;;16.88;100.00
62712;BME280;48772;55.586;37.730;2023-07-29T18:45:35;98342.44;;;16.83;100.00
62712;BME280;48772;55.586;37.730;2023-07-29T18:48:02;98319.13;;;16.69;100.00
62712;BME280;48772;55.586;37.730;2023-07-29T18:50:28;98349.03;;;16.81;100.00
62712;BME280;48772;55.586;37.730;2023-07-29T18:52:54;98349.03;;;16.81;100.00
62712;BME280;48772;55.586;37.730;2023-07-29T18:55:24;98353.41;;;16.82;100.00
62712;BME280;48772;55.586;37.730;2023-07-29T18:57:50;98351.53;;;16.82;100.00
62712;BME280;48772;55.586;37.730;2023-07-29T19:00:17;98352.75;;;16.80;100.00
62712;BME280;48772;55.586;37.730;2023-07-29T19:02:42;98351.47;;;16.76;100.00
62712;BME280;48772;55.586;37.730;2023-07-29T19:05:10;98350.97;;;16.66;100.00
62712;BME280;48772;55.586;37.730;2023-07-29T19:07:39;98359.69;;;16.68;100.00
62712;BME280;48772;55.586;37.730;2023-07-29T19:10:06;98366.34;;;16.72;100.00
62712;BME280;48772;55.586;37.730;2023-07-29T19:12:32;98371.28;;;16.68;100.00
62712;BME280;48772;55.586;37.730;2023-07-29T19:14:58;98363.91;;;16.56;100.00
62712;BME280;48772;55.586;37.730;2023-07-29T19:17:24;98381.38;;;16.60;100.00
62712;BME280;48772;55.586;37.730;2023-07-29T19:19:50;98357.38;;;16.43;100.00
62712;BME280;48772;55.586;37.730;2023-07-29T19:22:16;98375.50;;;16.56;100.00
62712;BME280;48772;55.586;37.730;2023-07-29T19:24:42;98370.06;;;16.50;100.00
62712;BME280;48772;55.586;37.730;2023-07-29T19:27:09;98359.13;;;16.36;100.00
62712;BME280;48772;55.586;37.730;2023-07-29T19:29:35;98351.66;;;16.32;100.00
62712;BME280;48772;55.586;37.730;2023-07-29T19:32:02;98378.09;;;16.43;100.00
62712;BME280;48772;55.586;37.730;2023-07-29T19:34:28;98376.50;;;16.49;100.00
62712;BME280;48772;55.586;37.730;2023-07-29T19:36:53;98346.03;;;16.33;100.00
62712;BME280;48772;55.586;37.730;2023-07-29T19:39:20;98359.03;;;16.44;100.00
62712;BME280;48772;55.586;37.730;2023-07-29T19:41:50;98341.06;;;16.30;100.00
62712;BME280;48772;55.586;37.730;2023-07-29T19:44:15;98327.72;;;16.22;100.00
62712;BME280;48772;55.586;37.730;2023-07-29T19:46:41;98360.41;;;16.40;100.00
62712;BME280;48772;55.586;37.730;2023-07-29T19:49:07;98355.34;;;16.46;100.00
62712;BME280;48772;55.586;37.730;2023-07-29T19:51:33;98360.41;;;16.40;100.00
62712;BME280;48772;55.586;37.730;2023-07-29T19:53:59;98353.13;;;16.34;100.00
62712;BME280;48772;55.586;37.730;2023-07-29T19:56:25;98362.66;;;16.37;100.00
62712;BME280;48772;55.586;37.730;2023-07-29T19:58:51;98358.50;;;16.34;100.00
62712;BME280;48772;55.586;37.730;2023-07-29T20:01:16;98358.88;;;16.31;100.00
62712;BME280;48772;55.586;37.730;2023-07-29T20:03:42;98357.66;;;16.34;100.00
62712;BME280;48772;55.586;37.730;2023-07-29T20:06:08;98358.50;;;16.34;100.00
62712;BME280;48772;55.586;37.730;2023-07-29T20:08:34;98341.81;;;16.24;100.00
62712;BME280;48772;55.586;37.730;2023-07-29T20:11:00;98327.59;;;16.09;100.00
62712;BME280;48772;55.586;37.730;2023-07-29T20:13:26;98326.56;;;16.10;100.00
62712;BME280;48772;55.586;37.730;2023-07-29T20:15:53;98345.91;;;16.20;100.00
62712;BME280;48772;55.586;37.730;2023-07-29T20:18:19;98333.81;;;16.10;100.00
62712;BME280;48772;55.586;37.730;2023-07-29T20:20:50;98345.66;;;16.15;100.00
62712;BME280;48772;55.586;37.730;2023-07-29T20:23:16;98355.22;;;16.18;100.00
62712;BME280;48772;55.586;37.730;2023-07-29T20:25:42;98343.34;;;16.12;100.00
62712;BME280;48772;55.586;37.730;2023-07-29T20:28:08;98340.56;;;16.06;100.00
62712;BME280;48772;55.586;37.730;2023-07-29T20:30:34;98336.16;;;15.98;100.00
62712;BME280;48772;55.586;37.730;2023-07-29T20:33:01;98331.16;;;15.95;100.00
62712;BME280;48772;55.586;37.730;2023-07-29T20:35:28;98357.44;;;16.14;100.00
62712;BME280;48772;55.586;37.730;2023-07-29T20:37:54;98355.41;;;16.16;100.00
62712;BME280;48772;55.586;37.730;2023-07-29T20:40:20;98351.78;;;16.09;100.00
62712;BME280;48772;55.586;37.730;2023-07-29T20:42:46;98363.19;;;16.11;100.00
62712;BME280;48772;55.586;37.730;2023-07-29T20:45:13;98371.06;;;16.13;100.00
62712;BME280;48772;55.586;37.730;2023-07-29T20:47:39;98367.56;;;16.12;100.00
62712;BME280;48772;55.586;37.730;2023-07-29T20:50:05;98381.44;;;16.16;100.00
62712;BME280;48772;55.586;37.730;2023-07-29T20:52:32;98383.09;;;16.17;100.00
62712;BME280;48772;55.586;37.730;2023-07-29T20:54:58;98378.56;;;16.17;100.00
62712;BME280;48772;55.586;37.730;2023-07-29T20:57:24;98379.41;;;16.18;100.00
62712;BME280;48772;55.586;37.730;2023-07-29T20:59:50;98351.44;;;15.98;100.00
62712;BME280;48772;55.586;37.730;2023-07-29T21:02:16;98375.25;;;16.15;100.00
62712;BME280;48772;55.586;37.730;2023-07-29T21:04:42;98362.47;;;16.03;100.00
62712;BME280;48772;55.586;37.730;2023-07-29T21:07:08;98362.47;;;16.03;100.00
62712;BME280;48772;55.586;37.730;2023-07-29T21:09:34;98363.28;;;16.03;100.00
62712;BME280;48772;55.586;37.730;2023-07-29T21:12:03;98372.28;;;16.10;100.00
62712;BME280;48772;55.586;37.730;2023-07-29T21:14:31;98373.94;;;16.11;100.00
62712;BME280;48772;55.586;37.730;2023-07-29T21:16:57;98359.31;;;15.99;100.00
62712;BME280;48772;55.586;37.730;2023-07-29T21:19:23;98369.03;;;16.00;100.00
62712;BME280;48772;55.586;37.730;2023-07-29T21:21:49;98375.09;;;16.02;100.00
62712;BME280;48772;55.586;37.730;2023-07-29T21:24:16;98370.91;;;16.00;100.00
62712;BME280;48772;55.586;37.730;2023-07-29T21:26:42;98360.28;;;15.92;100.00
62712;BME280;48772;55.586;37.730;2023-07-29T21:29:08;98338.31;;;15.74;100.00
62712;BME280;48772;55.586;37.730;2023-07-29T21:31:35;98370.84;;;15.93;100.00
62712;BME280;48772;55.586;37.730;2023-07-29T21:34:02;98365.19;;;15.88;100.00
62712;BME280;48772;55.586;37.730;2023-07-29T21:36:28;98375.38;;;15.93;100.00
62712;BME280;48772;55.586;37.730;2023-07-29T21:38:54;98349.53;;;15.77;100.00
62712;BME280;48772;55.586;37.730;2023-07-29T21:41:22;98348.31;;;15.80;100.00
62712;BME280;48772;55.586;37.730;2023-07-29T21:43:49;98387.78;;;15.94;100.00
62712;BME280;48772;55.586;37.730;2023-07-29T21:46:15;98380.28;;;15.89;100.00
62712;BME280;48772;55.586;37.730;2023-07-29T21:48:44;98362.22;;;15.83;100.00
62712;BME280;48772;55.586;37.730;2023-07-29T21:51:11;98376.59;;;15.90;100.00
62712;BME280;48772;55.586;37.730;2023-07-29T21:53:38;98378.25;;;15.91;100.00
62712;BME280;48772;55.586;37.730;2023-07-29T21:56:05;98371.59;;;15.87;100.00
62712;BME280;48772;55.586;37.730;2023-07-29T21:58:31;98336.94;;;15.63;100.00
62712;BME280;48772;55.586;37.730;2023-07-29T22:00:57;98344.53;;;15.74;100.00
62712;BME280;48772;55.586;37.730;2023-07-29T22:03:23;98363.25;;;15.82;100.00
62712;BME280;48772;55.586;37.730;2023-07-29T22:05:49;98365.09;;;15.82;100.00
62712;BME280;48772;55.586;37.730;2023-07-29T22:08:16;98360.00;;;15.72;100.00
62712;BME280;48772;55.586;37.730;2023-07-29T22:10:45;98368.00;;;15.66;100.00
62712;BME280;48772;55.586;37.730;2023-07-29T22:13:11;98344.53;;;15.45;100.00
62712;BME280;48772;55.586;37.730;2023-07-29T22:15:43;98347.44;;;15.44;100.00
62712;BME280;48772;55.586;37.730;2023-07-29T22:18:09;98373.63;;;15.56;100.00
62712;BME280;48772;55.586;37.730;2023-07-29T22:20:39;98351.59;;;15.46;100.00
62712;BME280;48772;55.586;37.730;2023-07-29T22:23:07;98376.13;;;15.58;100.00
62712;BME280;48772;55.586;37.730;2023-07-29T22:25:32;98343.91;;;15.43;100.00
62712;BME280;48772;55.586;37.730;2023-07-29T22:27:58;98365.00;;;15.61;100.00
62712;BME280;48772;55.586;37.730;2023-07-29T22:30:24;98334.00;;;15.44;100.00
62712;BME280;48772;55.586;37.730;2023-07-29T22:32:51;98346.13;;;15.54;100.00
62712;BME280;48772;55.586;37.730;2023-07-29T22:35:17;98346.03;;;15.62;100.00
62712;BME280;48772;55.586;37.730;2023-07-29T22:37:43;98352.69;;;15.66;100.00
62712;BME280;48772;55.586;37.730;2023-07-29T22:40:09;98323.16;;;15.52;100.00
62712;BME280;48772;55.586;37.730;2023-07-29T22:42:35;98349.38;;;15.64;100.00
62712;BME280;48772;55.586;37.730;2023-07-29T22:45:01;98342.69;;;15.60;100.00
62712;BME280;48772;55.586;37.730;2023-07-29T22:47:30;98346.69;;;15.64;100.00
62712;BME280;48772;55.586;37.730;2023-07-29T22:49:56;98346.03;;;15.62;100.00
62712;BME280;48772;55.586;37.730;2023-07-29T22:52:22;98351.22;;;15.64;100.00
62712;BME280;48772;55.586;37.730;2023-07-29T22:54:48;98365.94;;;15.68;100.00
62712;BME280;48772;55.586;37.730;2023-07-29T22:57:14;98342.50;;;15.62;100.00
62712;BME280;48772;55.586;37.730;2023-07-29T22:59:41;98354.16;;;15.69;100.00
62712;BME280;48772;55.586;37.730;2023-07-29T23:02:06;98347.06;;;15.61;100.00
62712;BME280;48772;55.586;37.730;2023-07-29T23:04:32;98352.78;;;15.58;100.00
62712;BME280;48772;55.586;37.730;2023-07-29T23:06:58;98348.25;;;15.44;100.00
62712;BME280;48772;55.586;37.730;2023-07-29T23:09:26;98333.69;;;15.24;100.00
62712;BME280;48772;55.586;37.730;2023-07-29T23:11:52;98355.44;;;15.29;100.00
62712;BME280;48772;55.586;37.730;2023-07-29T23:14:17;98362.00;;;15.27;100.00
62712;BME280;48772;55.586;37.730;2023-07-29T23:16:43;98356.25;;;15.15;100.00
62712;BME280;48772;55.586;37.730;2023-07-29T23:19:09;98357.19;;;15.08;100.00
62712;BME280;48772;55.586;37.730;2023-07-29T23:21:35;98329.47;;;14.93;100.00
62712;BME280;48772;55.586;37.730;2023-07-29T23:24:01;98337.81;;;14.98;100.00
62712;BME280;48772;55.586;37.730;2023-07-29T23:26:28;98344.47;;;15.02;100.00
62712;BME280;48772;55.586;37.730;2023-07-29T23:28:58;98276.72;;;14.63;100.00
62712;BME280;48772;55.586;37.730;2023-07-29T23:31:24;98339.66;;;14.97;100.00
62712;BME280;48772;55.586;37.730;2023-07-29T23:33:50;98353.28;;;15.10;100.00
62712;BME280;48772;55.586;37.730;2023-07-29T23:36:17;98346.44;;;15.08;100.00
62712;BME280;48772;55.586;37.730;2023-07-29T23:38:42;98364.59;;;15.20;100.00
62712;BME280;48772;55.586;37.730;2023-07-29T23:41:09;98357.19;;;15.22;100.00
62712;BME280;48772;55.586;37.730;2023-07-29T23:43:35;98285.19;;;14.74;100.00
62712;BME280;48772;55.586;37.730;2023-07-29T23:46:01;98356.16;;;15.23;100.00
62712;BME280;48772;55.586;37.730;2023-07-29T23:48:27;98346.16;;;15.17;100.00
62712;BME280;48772;55.586;37.730;2023-07-29T23:50:53;98343.19;;;15.12;100.00
62712;BME280;48772;55.586;37.730;2023-07-29T23:53:19;98364.41;;;15.22;100.00
62712;BME280;48772;55.586;37.730;2023-07-29T23:55:45;98335.22;;;15.04;100.00
62712;BME280;48772;55.586;37.730;2023-07-29T23:58:11;98333.19;;;15.06;100.00
